LFBA/AGF METAR and TAF weather

Enter ICAO airport designator
Station Type Date Time Source
LFBA METAR 2019/02/20 08:00 UTC NOAA

LFBA 200800Z AUTO 11009KT 0450 0400 R29/0550N FG VV/// 02/02 Q1023 BECMG 4000 BR NSC


Station Type Date Time Source
LFBA Decoded METAR 2019/02/20 08:00 UTC NOAA

Agen, France (LFBA) 44-11N 000-36E 60M
Feb 20, 2019 - 03:00 AM EST / 2019.02.20 0800 UTC
Wind: from the ESE (110 degrees) at 10 MPH (9 KT):0
Visibility: less than 1 mile:0
Sky conditions: obscured
Weather: fog
Temperature: 35 F (2 C)
Windchill: 26 F (-3 C):1
Dew Point: 35 F (2 C)
Relative Humidity: 100%
Pressure (altimeter): 30.21 in. Hg (1023 hPa)
ob: LFBA 200800Z AUTO 11009KT 0450 0400 R29/0550N FG VV/// 02/02 Q1023 BECMG 4000 BR NSC
cycle: 8

Station Type Date Time Source
LFBA TAF 2014/12/22 20:03 UTC NOAA

TAF
AMD TAF
AMD LFBA 222037Z 2220/2224 12007KT 0400 FG VV///
TEMPO 2220/2224 0100 PROB30
TEMPO 2222/2224 FZFG


Example: see airport list